Mostly Cloudy Current Weather (METAR) For Bournemouth Airport

All times on the weather descriptions are local

Observed at 14:20 - (4 mins ago)

Mostly Cloudy

17°C

Mostly Cloudy
Clouds: Broken Clouds at 600ft
Wind: 180° at 08 knots
Visibility: 6,000m
QNH: 1017
Dew Point: 15°C
Runway in Use: Likely Runway 26

Sunrise Today: 06:54
Sunset Today: 16:47

Forecast Weather (TAF) For Bournemouth Airport

Issued at 00:00 - (9 hrs 35 mins ago)


Runway in Use: Unable to determine, wind is clam

Forecast valid until 00:00 on Friday

METAR/TAF RAW METAR / TAF

EGHH 301420Z 18008KT 6000 BKN006 17/15 Q1017

Weather Widget

Put weather from any of our airports on your website with our weather widget.

Find Another Search

Airport Search


Please Wait Please Wait - Loading
Close
Close

Login

Username:

Password:

Remember Me:

Remember me on this computer

Forgotten your password? Get a reset password sent to your registered e-mail address

Close

User Private Message

Subject:

Message: